Govans, Maryland
Current Conditions -  °F | °C
As of 7:55 PM on Tuesday 25 Nov 2014 (Local Time) from KMTN Reporting Station
Scattered Clouds Scattered Clouds  
Wind Chill: 43°   Ceiling: Unl
Heat Index: 43°   Visibility: 10mi
Dew Point: 37°   Wind: 0mph
Humidity: 81%   Direction: NA
Pressure: 30.14"   Gusts: NA
Location:  39.3674°N, 76.6149°W
Report Text: KMTN 260055Z 00000KT 10SM SCT120 06/03 A3014
Loading
Personal Weather Stations






























Interactive Weather Map New forecast layout! Learn more

10-Day Weather Forecast

Advertisements
Track Severe Weather on mobile